Portada
METAR-TAF:

METAR-TAF

Aeropuertos :

Al-Hasa, Arabia Saudita

latitud: 25-18N, longitud: 049-29E, altitud: 179 m

Observación

El informe se hizo hace 35 minutos, a las 04:00 UTC
Viento 11 kt del sur-suroeste
Temperatura 19°C
Humedad 24%
Presión 1013 hPa
Visibilidad 10 km o más
sin nubes por debajo de 1500 m y sin presencia de cumulonimbus.

METAR: OEAH 090400Z 21011KT CAVOK 19/M02 Q1013 NOSIG

Hora: 07:35 (04:35 UTC)

Pronóstico

El informe se hizo hace 5 horas y 35 minutos, a las 23:00 UTC
Pronóstico válido del 09 a las 00 UTC al 10 a las 06 UTC
Viento 15 kt del sur
Visibilidad: 7000 m
Temporalmente
del 09 a las 00 UTC al 09 a las 12 UTC
Visibilidad: 4000 m
Ventisca alta de polvo
Evolucionando progresivamente
del 09 a las 14 UTC al 09 a las 16 UTC
Viento 12 kt del norte-noreste

TAF: OEAH 082300Z 0900/1006 19015KT 7000 NSC TEMPO 0900/0912 4000 BLDU BECMG 0914/0916 02012KT

Observaciones y pronósticos meteorológicos de más de 4000 aeropuertos (mensajes METAR y TAF).

Los puntos amarillos y rojos representan las estaciones disponibles.

Ponga el ratón en el punto deseado para ver el nombre de la estación.

Haga clic para ver las observaciones y los pronósticos meteorológicos.

Para cambiar el mapa : haga clic en los botones verdes con una cruz de color negro para hacer un zoom, en el botón verde con un guión para alejar o en las flechas verdes para mapas adyacentes.


METAR-TAF: